Time;durP1;ratioP1;P1;durP2;ratioP2;P2;SDS_P1;SDS_P2;PMS_P1;PMS_P2;Temp;Humidity;BMP_temperature;BMP_pressure;BME280_temperature;BME280_humidity;BME280_pressure;Samples;Min_cycle;Max_cycle;Signal;HPM_P1;HPM_P2
2024/01/27 00:02:10;;;;;;;;;;;;;;;22.21;31.90;103310.56;5052426;28;19924;-73
2024/01/27 00:04:36;;;;;;;;;;;;;;;22.19;31.60;103318.84;5048658;28;19921;-74
2024/01/27 00:07:02;;;;;;;;;;;;;;;22.16;31.91;103315.53;5039778;28;19913;-74
2024/01/27 00:09:27;;;;;;;;;;;;;;;22.13;31.97;103319.38;5038017;28;19983;-75
2024/01/27 00:11:52;;;;;;;;;;;;;;;22.10;31.84;103325.00;5042574;28;19912;-74
2024/01/27 00:14:17;;;;;;;;;;;;;;;22.10;31.81;103326.88;5042023;28;19924;-74
2024/01/27 00:16:42;;;;;;;;;;;;;;;22.08;31.77;103323.41;5034918;28;19918;-74
2024/01/27 00:19:08;;;;;;;;;;;;;;;22.03;31.94;103329.22;5043848;28;19917;-74
2024/01/27 00:21:33;;;;;;;;;;;;;;;22.02;31.98;103318.53;5043005;28;20350;-74
2024/01/27 00:24:00;;;;;;;;;;;;;;;21.99;32.08;103316.94;5039803;28;19920;-75
2024/01/27 00:26:26;;;;;;;;;;;;;;;21.96;31.97;103318.06;5048265;28;19909;-74
2024/01/27 00:28:51;;;;;;;;;;;;;;;21.96;32.12;103322.59;5045780;28;19919;-75
2024/01/27 00:31:16;;;;;;;;;;;;;;;21.93;31.87;103329.16;5038607;28;19920;-75
2024/01/27 00:33:41;;;;;;;;;;;;;;;21.91;31.81;103324.84;5037039;28;19914;-74
2024/01/27 00:36:07;;;;;;;;;;;;;;;21.89;32.05;103322.28;5043229;28;20040;-75
2024/01/27 00:38:32;;;;;;;;;;;;;;;21.88;31.97;103327.84;5041859;28;19921;-75
2024/01/27 00:40:57;;;;;;;;;;;;;;;21.85;32.24;103331.66;5037687;28;19914;-74
2024/01/27 00:43:22;;;;;;;;;;;;;;;21.83;31.83;103317.38;5037761;28;19920;-74
2024/01/27 00:45:47;;;;;;;;;;;;;;;21.81;32.17;103316.66;5041569;28;19984;-74
2024/01/27 00:48:12;;;;;;;;;;;;;;;21.79;31.88;103321.34;5044473;28;19937;-74
2024/01/27 00:50:38;;;;;;;;;;;;;;;21.78;32.04;103324.16;5037673;28;19913;-75
2024/01/27 00:53:03;;;;;;;;;;;;;;;21.75;32.19;103327.13;5035774;28;19917;-74
2024/01/27 00:55:28;;;;;;;;;;;;;;;21.74;32.00;103320.00;5041348;28;19917;-74
2024/01/27 00:57:54;;;;;;;;;;;;;;;21.70;32.30;103325.66;5051571;28;19955;-74
2024/01/27 01:00:19;;;;;;;;;;;;;;;21.69;32.26;103331.22;5041041;28;20337;-74
2024/01/27 01:02:44;;;;;;;;;;;;;;;21.67;32.18;103331.34;5050942;28;19968;-74
2024/01/27 01:05:09;;;;;;;;;;;;;;;21.63;32.09;103343.44;5038817;28;19928;-75
2024/01/27 01:07:34;;;;;;;;;;;;;;;21.62;32.24;103343.53;5030735;28;19921;-74
2024/01/27 01:10:00;;;;;;;;;;;;;;;21.60;32.37;103334.69;5034334;28;20610;-74
2024/01/27 01:12:28;;;;;;;;;;;;;;;21.58;32.49;103336.66;5047420;28;19921;-75
2024/01/27 01:14:53;;;;;;;;;;;;;;;21.55;32.44;103337.78;5046328;28;19921;-74
2024/01/27 01:17:18;;;;;;;;;;;;;;;21.54;32.12;103348.75;5040805;28;19920;-74
2024/01/27 01:19:43;;;;;;;;;;;;;;;21.53;32.49;103345.16;5034474;28;19963;-74
2024/01/27 01:22:08;;;;;;;;;;;;;;;21.51;32.41;103340.88;5038280;28;19939;-74
2024/01/27 01:24:34;;;;;;;;;;;;;;;21.49;32.42;103337.44;5045382;28;19917;-75
2024/01/27 01:26:59;;;;;;;;;;;;;;;21.48;32.42;103339.28;5040052;28;19914;-75
2024/01/27 01:29:24;;;;;;;;;;;;;;;21.46;32.18;103344.81;5037998;28;19968;-70
2024/01/27 01:31:49;;;;;;;;;;;;;;;21.44;32.58;103346.78;5036912;28;19939;-70
2024/01/27 01:34:15;;;;;;;;;;;;;;;21.41;32.55;103336.22;5034820;28;19917;-70
2024/01/27 01:36:40;;;;;;;;;;;;;;;21.40;32.53;103339.91;5035663;28;19913;-70
2024/01/27 01:39:05;;;;;;;;;;;;;;;21.38;32.56;103344.59;5048458;28;19921;-70
2024/01/27 01:41:31;;;;;;;;;;;;;;;21.36;32.59;103356.53;5039357;28;19913;-71
2024/01/27 01:43:56;;;;;;;;;;;;;;;21.34;32.68;103358.50;5036573;28;19917;-70
2024/01/27 01:46:21;;;;;;;;;;;;;;;21.33;32.35;103348.69;5036693;28;19944;-70
2024/01/27 01:48:46;;;;;;;;;;;;;;;21.30;32.69;103355.16;5040858;28;19923;-70
2024/01/27 01:51:12;;;;;;;;;;;;;;;21.29;32.61;103353.44;5035772;28;19913;-70
2024/01/27 01:53:37;;;;;;;;;;;;;;;21.27;32.37;103349.13;5041665;28;19916;-70
2024/01/27 01:56:02;;;;;;;;;;;;;;;21.24;32.68;103352.97;5037389;28;19917;-70
2024/01/27 01:58:33;;;;;;;;;;;;;;;21.23;32.47;103364.75;5039563;28;20374;-70
2024/01/27 02:00:59;;;;;;;;;;;;;;;21.20;32.76;103348.78;5039682;28;19936;-70
2024/01/27 02:03:24;;;;;;;;;;;;;;;21.18;32.75;103359.72;5030875;28;19914;-70
2024/01/27 02:05:49;;;;;;;;;;;;;;;21.17;32.46;103359.84;5034483;28;19977;-70
2024/01/27 02:08:14;;;;;;;;;;;;;;;21.16;32.55;103360.84;5050733;28;19932;-70
2024/01/27 02:10:40;;;;;;;;;;;;;;;21.13;32.42;103363.78;5039069;28;19913;-70
2024/01/27 02:13:20;;;;;;;;;;;;;;;21.11;32.87;103363.91;5047400;28;19920;-69
2024/01/27 02:15:45;;;;;;;;;;;;;;;21.10;32.87;103364.03;5041680;28;19914;-70
2024/01/27 02:18:11;;;;;;;;;;;;;;;21.06;32.60;103357.13;5039121;28;19928;-69
2024/01/27 02:20:37;;;;;;;;;;;;;;;21.05;32.75;103368.94;5033143;28;19917;-70
2024/01/27 02:23:04;;;;;;;;;;;;;;;21.03;32.78;103366.38;5031457;28;20392;-70
2024/01/27 02:25:29;;;;;;;;;;;;;;;21.01;32.63;103376.44;5042196;28;20031;-70
2024/01/27 02:27:55;;;;;;;;;;;;;;;21.00;32.95;103376.56;5040695;28;19972;-70
2024/01/27 02:30:20;;;;;;;;;;;;;;;20.96;32.66;103371.41;5037162;28;20325;-69
2024/01/27 02:32:45;;;;;;;;;;;;;;;20.94;32.92;103370.69;5041446;28;19929;-69
2024/01/27 02:35:10;;;;;;;;;;;;;;;20.93;32.93;103371.63;5044605;28;19916;-69
2024/01/27 02:37:35;;;;;;;;;;;;;;;20.91;32.85;103365.50;5033080;28;19928;-70
2024/01/27 02:40:00;;;;;;;;;;;;;;;20.90;32.92;103362.94;5032398;28;19920;-69
2024/01/27 02:42:26;;;;;;;;;;;;;;;20.88;32.89;103362.19;5042009;28;19935;-69
2024/01/27 02:44:51;;;;;;;;;;;;;;;20.85;32.77;103352.47;5047883;28;19939;-69
2024/01/27 02:47:16;;;;;;;;;;;;;;;20.83;32.71;103359.84;5029336;28;20441;-69
2024/01/27 02:49:41;;;;;;;;;;;;;;;20.81;32.66;103356.38;5039388;28;19913;-69
2024/01/27 02:52:06;;;;;;;;;;;;;;;20.81;32.72;103352.81;5040016;28;19917;-69
2024/01/27 02:54:32;;;;;;;;;;;;;;;20.78;32.77;103345.84;5038544;28;20024;-70
2024/01/27 02:56:57;;;;;;;;;;;;;;;20.77;32.96;103351.34;5040037;28;19923;-69
2024/01/27 02:59:22;;;;;;;;;;;;;;;20.75;32.75;103347.91;5037961;28;19978;-69
2024/01/27 03:01:47;;;;;;;;;;;;;;;20.74;32.69;103338.09;5036156;28;19913;-70
2024/01/27 03:04:12;;;;;;;;;;;;;;;20.70;33.00;103341.03;5041142;28;20384;-69
2024/01/27 03:06:38;;;;;;;;;;;;;;;20.69;32.86;103350.13;5049415;28;19913;-69
2024/01/27 03:09:03;;;;;;;;;;;;;;;20.68;33.06;103351.09;5045072;28;19944;-69
2024/01/27 03:11:28;;;;;;;;;;;;;;;20.66;32.83;103358.47;5036954;28;19921;-69
2024/01/27 03:13:54;;;;;;;;;;;;;;;20.65;32.97;103361.31;5031299;28;20268;-69
2024/01/27 03:16:19;;;;;;;;;;;;;;;20.63;32.91;103356.00;5028266;28;19920;-69
2024/01/27 03:18:45;;;;;;;;;;;;;;;20.61;32.81;103363.41;5046480;28;19952;-69
2024/01/27 03:21:10;;;;;;;;;;;;;;;20.60;32.85;103352.69;5045777;28;19984;-69
2024/01/27 03:23:36;;;;;;;;;;;;;;;20.58;32.98;103352.81;5044315;28;19921;-70
2024/01/27 03:26:01;;;;;;;;;;;;;;;20.56;33.12;103360.19;5037869;28;19914;-70
2024/01/27 03:28:27;;;;;;;;;;;;;;;20.55;33.20;103355.75;5035921;28;19912;-69
2024/01/27 03:30:52;;;;;;;;;;;;;;;20.54;33.15;103356.72;5031631;28;19925;-69
2024/01/27 03:33:17;;;;;;;;;;;;;;;20.53;32.90;103356.88;5040234;28;19921;-69
2024/01/27 03:35:42;;;;;;;;;;;;;;;20.52;33.02;103355.13;5039787;28;19921;-69
2024/01/27 03:38:07;;;;;;;;;;;;;;;20.50;32.83;103355.25;5035922;28;19975;-69
2024/01/27 03:40:32;;;;;;;;;;;;;;;20.50;32.86;103359.81;5034811;28;19913;-69
2024/01/27 03:42:58;;;;;;;;;;;;;;;20.50;32.92;103351.69;5038351;28;20414;-69
2024/01/27 03:45:23;;;;;;;;;;;;;;;20.49;33.08;103355.38;5035223;28;19916;-69
2024/01/27 03:47:48;;;;;;;;;;;;;;;20.47;32.96;103367.16;5045062;28;19913;-69
2024/01/27 03:50:13;;;;;;;;;;;;;;;20.45;32.80;103369.09;5033400;28;19913;-69
2024/01/27 03:52:38;;;;;;;;;;;;;;;20.45;32.86;103373.66;5032145;28;19917;-70
2024/01/27 03:55:05;;;;;;;;;;;;;;;20.44;33.07;103375.47;5047312;28;19913;-69
2024/01/27 03:57:30;;;;;;;;;;;;;;;20.43;32.79;103370.19;5040660;28;19918;-71
2024/01/27 03:59:55;;;;;;;;;;;;;;;20.43;32.91;103379.19;5038868;28;20005;-70
2024/01/27 04:02:20;;;;;;;;;;;;;;;20.42;32.82;103380.13;5034410;28;19924;-69
2024/01/27 04:04:45;;;;;;;;;;;;;;;20.43;32.88;103394.50;5036946;28;19935;-69
2024/01/27 04:07:11;;;;;;;;;;;;;;;20.42;32.73;103393.66;5037136;28;19928;-69
2024/01/27 04:09:36;;;;;;;;;;;;;;;20.42;33.14;103393.66;5034348;28;20011;-70
2024/01/27 04:12:01;;;;;;;;;;;;;;;20.42;32.87;103407.16;5040678;28;19956;-69
2024/01/27 04:14:26;;;;;;;;;;;;;;;20.42;32.78;103403.59;5036799;28;20019;-69
2024/01/27 04:16:52;;;;;;;;;;;;;;;20.42;32.64;103404.44;5038960;28;19917;-69
2024/01/27 04:19:17;;;;;;;;;;;;;;;20.43;32.67;103405.31;5048988;28;19914;-70
2024/01/27 04:21:42;;;;;;;;;;;;;;;20.42;32.60;103409.84;5047300;28;19916;-69
2024/01/27 04:24:08;;;;;;;;;;;;;;;20.43;32.86;103414.31;5045752;28;19921;-69
2024/01/27 04:26:33;;;;;;;;;;;;;;;20.42;32.75;103404.44;5029931;28;19913;-69
2024/01/27 04:28:58;;;;;;;;;;;;;;;20.42;32.60;103406.28;5035977;28;19913;-69
2024/01/27 04:31:23;;;;;;;;;;;;;;;20.43;32.87;103399.91;5044046;28;19917;-69
2024/01/27 04:33:48;;;;;;;;;;;;;;;20.42;32.55;103393.66;5044544;28;20052;-70
2024/01/27 04:36:13;;;;;;;;;;;;;;;20.43;32.62;103381.88;5042374;28;19913;-69
2024/01/27 04:38:39;;;;;;;;;;;;;;;20.43;32.57;103383.69;5034234;28;19917;-70
2024/01/27 04:41:04;;;;;;;;;;;;;;;20.43;32.55;103384.56;5041358;28;19924;-69
2024/01/27 04:43:29;;;;;;;;;;;;;;;20.44;32.73;103390.84;5039223;28;19913;-70
2024/01/27 04:45:54;;;;;;;;;;;;;;;20.44;32.51;103377.34;5038330;28;19960;-69
2024/01/27 04:48:19;;;;;;;;;;;;;;;20.45;32.44;103374.50;5043250;28;19913;-70
2024/01/27 04:50:45;;;;;;;;;;;;;;;20.44;32.53;103378.19;5039968;28;19932;-69
2024/01/27 04:53:10;;;;;;;;;;;;;;;20.45;32.47;103369.09;5036150;28;19917;-70
2024/01/27 04:55:35;;;;;;;;;;;;;;;20.45;32.77;103361.00;5033406;28;19917;-69
2024/01/27 04:58:01;;;;;;;;;;;;;;;20.46;32.53;103364.53;5040577;28;19927;-69
2024/01/27 05:00:27;;;;;;;;;;;;;;;20.46;32.54;103378.06;5043638;28;19913;-69
2024/01/27 05:02:53;;;;;;;;;;;;;;;20.48;32.46;103370.75;5037921;28;19913;-69
2024/01/27 05:05:18;;;;;;;;;;;;;;;20.48;32.57;103357.22;5046084;28;19920;-69
2024/01/27 05:07:43;;;;;;;;;;;;;;;20.47;32.53;103356.34;5046379;28;19914;-70
2024/01/27 05:10:10;;;;;;;;;;;;;;;20.49;32.54;103369.75;5036240;28;19936;-69
2024/01/27 05:12:35;;;;;;;;;;;;;;;20.50;32.72;103362.50;5039977;28;19928;-70
2024/01/27 05:15:00;;;;;;;;;;;;;;;20.50;32.36;103381.41;5047787;28;19913;-69
2024/01/27 05:17:26;;;;;;;;;;;;;;;20.52;32.35;103371.34;5017965;28;19921;-70
2024/01/27 05:19:51;;;;;;;;;;;;;;;20.53;32.31;103367.69;5034634;28;19917;-69
2024/01/27 05:22:16;;;;;;;;;;;;;;;20.54;32.42;103374.81;5033546;28;19914;-69
2024/01/27 05:24:42;;;;;;;;;;;;;;;20.55;32.32;103377.38;5040636;28;19913;-73
2024/01/27 05:27:07;;;;;;;;;;;;;;;20.56;32.29;103371.00;5049991;28;19988;-74
2024/01/27 05:29:32;;;;;;;;;;;;;;;20.57;32.32;103375.44;5050792;28;19920;-75
2024/01/27 05:31:58;;;;;;;;;;;;;;;20.58;32.55;103371.72;5046187;28;19914;-73
2024/01/27 05:34:23;;;;;;;;;;;;;;;20.59;32.43;103362.63;5045115;28;19932;-74
2024/01/27 05:36:48;;;;;;;;;;;;;;;20.60;32.24;103371.59;5042283;28;19924;-74
2024/01/27 05:39:13;;;;;;;;;;;;;;;20.61;32.23;103379.63;5031507;28;19960;-73
2024/01/27 05:41:38;;;;;;;;;;;;;;;20.63;32.50;103382.19;5035750;28;19920;-74
2024/01/27 05:44:04;;;;;;;;;;;;;;;20.64;32.20;103371.25;5038010;28;19954;-74
2024/01/27 05:46:29;;;;;;;;;;;;;;;20.68;32.44;103375.44;5036828;28;20444;-74
2024/01/27 05:48:57;;;;;;;;;;;;;;;20.70;32.50;103378.03;5034913;28;20358;-73
2024/01/27 05:51:23;;;;;;;;;;;;;;;20.72;32.22;103384.16;5044549;28;20012;-72
2024/01/27 05:53:48;;;;;;;;;;;;;;;20.75;32.55;103383.94;5033854;28;20264;-71
2024/01/27 05:56:13;;;;;;;;;;;;;;;20.77;32.43;103381.94;5043390;28;19921;-73
2024/01/27 05:58:38;;;;;;;;;;;;;;;20.79;32.21;103376.44;5032885;28;19922;-74
2024/01/27 06:01:04;;;;;;;;;;;;;;;20.81;32.22;103385.28;5044579;28;19914;-74
2024/01/27 06:03:29;;;;;;;;;;;;;;;20.83;32.20;103375.22;5049181;28;19921;-74
2024/01/27 06:05:54;;;;;;;;;;;;;;;20.85;32.32;103381.34;5044653;28;19916;-73
2024/01/27 06:08:19;;;;;;;;;;;;;;;20.87;32.21;103376.69;5028318;28;19952;-74
2024/01/27 06:10:45;;;;;;;;;;;;;;;20.89;32.23;103383.69;5040994;28;19922;-75
2024/01/27 06:13:10;;;;;;;;;;;;;;;20.90;32.23;103380.03;5040076;28;19971;-74
2024/01/27 06:15:35;;;;;;;;;;;;;;;20.93;32.04;103385.16;5036923;28;19917;-75
2024/01/27 06:18:00;;;;;;;;;;;;;;;20.94;32.21;103377.91;5043730;28;19955;-73
2024/01/27 06:20:25;;;;;;;;;;;;;;;20.98;32.18;103382.09;5039618;28;20354;-72
2024/01/27 06:22:52;;;;;;;;;;;;;;;21.02;32.40;103394.38;5030246;28;19940;-72
2024/01/27 06:25:17;;;;;;;;;;;;;;;21.05;32.17;103383.34;5049258;28;19955;-72
2024/01/27 06:27:42;;;;;;;;;;;;;;;21.08;32.43;103382.25;5048481;28;19917;-72
2024/01/27 06:30:09;;;;;;;;;;;;;;;21.11;32.53;103384.66;5048718;28;19917;-72
2024/01/27 06:32:34;;;;;;;;;;;;;;;21.13;32.25;103380.88;5031394;28;19917;-72
2024/01/27 06:34:59;;;;;;;;;;;;;;;21.16;32.34;103383.34;5033902;28;19913;-71
2024/01/27 06:37:25;;;;;;;;;;;;;;;21.18;32.43;103385.91;5037400;28;19928;-72
2024/01/27 06:39:50;;;;;;;;;;;;;;;21.21;32.20;103391.09;5045921;28;19913;-72
2024/01/27 06:42:15;;;;;;;;;;;;;;;21.23;32.26;103397.22;5041656;28;19923;-73
2024/01/27 06:44:40;;;;;;;;;;;;;;;21.26;32.47;103402.38;5038288;28;19917;-72
2024/01/27 06:47:05;;;;;;;;;;;;;;;21.27;32.36;103401.41;5037805;28;19917;-75
2024/01/27 06:49:31;;;;;;;;;;;;;;;21.29;32.42;103406.69;5032091;28;19917;-72
2024/01/27 06:51:56;;;;;;;;;;;;;;;21.32;32.41;103409.16;5033585;28;19921;-72
2024/01/27 06:54:21;;;;;;;;;;;;;;;21.34;32.06;103405.38;5046390;28;19917;-72
2024/01/27 06:56:46;;;;;;;;;;;;;;;21.35;32.13;103400.81;5038110;28;19960;-73
2024/01/27 06:59:12;;;;;;;;;;;;;;;21.36;32.37;103400.69;5032565;28;19927;-72
2024/01/27 07:01:37;;;;;;;;;;;;;;;21.37;32.00;103402.41;5039903;28;20408;-74
2024/01/27 07:04:02;;;;;;;;;;;;;;;21.40;32.20;103410.28;5036476;28;19913;-74
2024/01/27 07:06:27;;;;;;;;;;;;;;;21.42;32.17;103404.75;5038255;28;19913;-74
2024/01/27 07:08:52;;;;;;;;;;;;;;;21.44;31.96;103405.47;5036355;28;19932;-75
2024/01/27 07:11:17;;;;;;;;;;;;;;;21.45;32.33;103407.19;5036722;28;19914;-73
2024/01/27 07:13:43;;;;;;;;;;;;;;;21.46;32.12;103409.78;5047681;28;19914;-73
2024/01/27 07:16:08;;;;;;;;;;;;;;;21.47;32.14;103416.06;5041442;28;19959;-73
2024/01/27 07:18:34;;;;;;;;;;;;;;;21.50;32.27;103417.66;5038956;28;19920;-73
2024/01/27 07:21:01;;;;;;;;;;;;;;;21.50;32.44;103421.22;5035477;28;19923;-75
2024/01/27 07:23:26;;;;;;;;;;;;;;;21.52;32.07;103419.25;5033383;28;19960;-75
2024/01/27 07:25:51;;;;;;;;;;;;;;;21.54;32.39;103427.25;5033383;28;19913;-75
2024/01/27 07:28:18;;;;;;;;;;;;;;;21.55;32.26;103427.13;5030533;28;19921;-75
2024/01/27 07:30:43;;;;;;;;;;;;;;;21.57;32.06;103422.44;5041991;28;19920;-76
2024/01/27 07:33:08;;;;;;;;;;;;;;;21.61;32.36;103431.16;5034571;28;20352;-76
2024/01/27 07:35:34;;;;;;;;;;;;;;;21.62;32.24;103419.34;5035459;28;19940;-75
2024/01/27 07:37:59;;;;;;;;;;;;;;;21.64;32.15;103425.50;5046205;28;19971;-75
2024/01/27 07:40:24;;;;;;;;;;;;;;;21.67;32.19;103434.25;5042643;28;19913;-75
2024/01/27 07:42:50;;;;;;;;;;;;;;;21.67;31.95;103434.25;5037101;28;19940;-73
2024/01/27 07:45:15;;;;;;;;;;;;;;;21.70;31.94;103438.53;5039578;28;19917;-75
2024/01/27 07:47:40;;;;;;;;;;;;;;;21.71;31.81;103435.72;5031680;28;19924;-75
2024/01/27 07:50:06;;;;;;;;;;;;;;;21.73;32.01;103434.72;5036286;28;20374;-75
2024/01/27 07:52:31;;;;;;;;;;;;;;;21.73;31.77;103426.59;5037840;28;19975;-76
2024/01/27 07:54:56;;;;;;;;;;;;;;;21.75;31.73;103424.59;5034402;28;19917;-76
2024/01/27 07:57:21;;;;;;;;;;;;;;;21.77;32.11;103437.06;5024647;28;20453;-73
2024/01/27 07:59:47;;;;;;;;;;;;;;;21.79;31.74;103432.38;5041000;28;19920;-74
2024/01/27 08:02:12;;;;;;;;;;;;;;;21.81;31.91;103438.53;5029708;28;19917;-73
2024/01/27 08:04:37;;;;;;;;;;;;;;;21.82;31.89;103442.09;5035442;28;19917;-74
2024/01/27 08:07:09;;;;;;;;;;;;;;;21.85;31.55;103455.38;5043380;28;19936;-77
2024/01/27 08:09:34;;;;;;;;;;;;;;;21.87;31.71;103439.84;5044489;28;19920;-74
2024/01/27 08:11:59;;;;;;;;;;;;;;;21.88;31.40;103444.31;5038910;28;19958;-75
2024/01/27 08:14:24;;;;;;;;;;;;;;;21.89;31.59;103444.16;5032901;28;20765;-75
2024/01/27 08:16:50;;;;;;;;;;;;;;;21.91;31.70;103433.19;5034305;28;19913;-74
2024/01/27 08:19:19;;;;;;;;;;;;;;;21.92;31.62;103449.34;5045571;28;20035;-77
2024/01/27 08:21:45;;;;;;;;;;;;;;;21.94;31.37;103446.50;5038063;28;19913;-77
2024/01/27 08:24:10;;;;;;;;;;;;;;;21.98;31.48;103447.09;5046020;28;19996;-77
2024/01/27 08:26:35;;;;;;;;;;;;;;;22.00;31.31;103453.22;5046711;28;20730;-77
2024/01/27 08:29:01;;;;;;;;;;;;;;;22.01;31.15;103458.53;5040814;28;19914;-77
2024/01/27 08:31:26;;;;;;;;;;;;;;;22.03;31.36;103459.25;5036126;28;19921;-77
2024/01/27 08:33:52;;;;;;;;;;;;;;;22.05;31.25;103462.72;5043894;28;19921;-76
2024/01/27 08:36:17;;;;;;;;;;;;;;;22.08;31.38;103464.28;5045667;28;19924;-76
2024/01/27 08:38:42;;;;;;;;;;;;;;;22.09;31.37;103469.59;5032036;28;19935;-77
2024/01/27 08:41:07;;;;;;;;;;;;;;;22.13;31.02;103478.34;5032009;28;19967;-76
2024/01/27 08:43:33;;;;;;;;;;;;;;;22.13;31.29;103481.94;5043526;28;20259;-76
2024/01/27 08:46:00;;;;;;;;;;;;;;;22.15;31.21;103477.25;5039896;28;19924;-77
2024/01/27 08:48:25;;;;;;;;;;;;;;;22.19;31.30;103486.84;5045621;28;19917;-77
2024/01/27 08:50:50;;;;;;;;;;;;;;;22.21;31.01;103478.56;5048888;28;19920;-76
2024/01/27 08:53:15;;;;;;;;;;;;;;;22.22;31.25;103472.19;5039098;28;19922;-76
2024/01/27 08:55:41;;;;;;;;;;;;;;;22.25;31.02;103476.47;5039277;28;19953;-77
2024/01/27 08:58:06;;;;;;;;;;;;;;;22.25;30.82;103480.03;5033033;28;20290;-76
2024/01/27 09:00:31;;;;;;;;;;;;;;;22.25;30.75;103482.75;5043219;28;19923;-77
2024/01/27 09:02:56;;;;;;;;;;;;;;;22.28;31.05;103495.19;5043268;28;19964;-77
2024/01/27 09:05:22;;;;;;;;;;;;;;;22.31;31.01;103493.09;5032250;28;19917;-76
2024/01/27 09:07:47;;;;;;;;;;;;;;;22.34;30.82;103494.66;5032867;28;19917;-75
2024/01/27 09:10:13;;;;;;;;;;;;;;;22.35;30.64;103493.69;5038041;28;20321;-78
2024/01/27 09:12:39;;;;;;;;;;;;;;;22.36;30.75;103485.44;5034423;28;19940;-77
2024/01/27 09:15:05;;;;;;;;;;;;;;;22.37;30.66;103481.72;5034920;28;20366;-77
2024/01/27 09:17:31;;;;;;;;;;;;;;;22.40;30.84;103481.47;5037802;28;20004;-74
2024/01/27 09:19:56;;;;;;;;;;;;;;;22.43;30.82;103480.38;5045778;28;20674;-75
2024/01/27 09:22:21;;;;;;;;;;;;;;;22.44;31.05;103482.94;5049558;28;20378;-75
2024/01/27 09:24:46;;;;;;;;;;;;;;;22.46;30.96;103478.22;5046957;28;19923;-77
2024/01/27 09:27:11;;;;;;;;;;;;;;;22.48;30.98;103477.25;5039900;28;19918;-76
2024/01/27 09:29:36;;;;;;;;;;;;;;;22.52;31.02;103486.84;5035380;28;19917;-77
2024/01/27 09:32:02;;;;;;;;;;;;;;;22.52;31.00;103487.72;5034953;28;19920;-77
2024/01/27 09:34:27;;;;;;;;;;;;;;;22.55;30.99;103473.88;5034125;28;19917;-76
2024/01/27 09:36:52;;;;;;;;;;;;;;;22.56;30.94;103489.16;5043396;28;19916;-77
2024/01/27 09:39:17;;;;;;;;;;;;;;;22.58;31.12;103484.47;5044192;28;19917;-77
2024/01/27 09:41:43;;;;;;;;;;;;;;;22.60;30.89;103487.91;5030389;28;19924;-77
2024/01/27 09:44:08;;;;;;;;;;;;;;;22.66;31.04;103487.38;5035426;28;19913;-75
2024/01/27 09:46:33;;;;;;;;;;;;;;;22.71;30.57;103493.25;5018268;28;19925;-74
2024/01/27 09:48:58;;;;;;;;;;;;;;;22.75;30.68;103493.88;5044243;28;19923;-73
2024/01/27 09:51:24;;;;;;;;;;;;;;;22.76;30.94;103492.00;5041290;28;19951;-74
2024/01/27 09:53:51;;;;;;;;;;;;;;;22.80;30.54;103499.75;5036597;28;19939;-73
2024/01/27 09:56:18;;;;;;;;;;;;;;;22.85;30.71;103496.63;5026457;28;19924;-74
2024/01/27 09:58:44;;;;;;;;;;;;;;;22.88;30.31;103501.81;5041044;28;19945;-73
2024/01/27 10:01:09;;;;;;;;;;;;;;;22.92;30.45;103501.44;5035889;28;19924;-74
2024/01/27 10:03:35;;;;;;;;;;;;;;;22.97;30.26;103505.63;5041476;28;19917;-74
2024/01/27 10:06:00;;;;;;;;;;;;;;;23.01;30.38;103509.78;5033419;28;19925;-73
2024/01/27 10:08:25;;;;;;;;;;;;;;;23.04;30.20;103513.09;5035945;28;20048;-74
2024/01/27 10:10:52;;;;;;;;;;;;;;;23.07;30.20;103507.41;5029797;28;19925;-74
2024/01/27 10:13:17;;;;;;;;;;;;;;;23.11;30.34;103502.59;5049348;28;19943;-74
2024/01/27 10:15:43;;;;;;;;;;;;;;;23.15;29.92;103506.72;5046621;28;19940;-73
2024/01/27 10:18:08;;;;;;;;;;;;;;;23.18;29.83;103507.31;5034250;28;19925;-73
2024/01/27 10:20:33;;;;;;;;;;;;;;;23.21;30.06;103508.91;5041480;28;20920;-74
2024/01/27 10:22:59;;;;;;;;;;;;;;;23.23;29.84;103515.03;5036513;28;20012;-74
2024/01/27 10:25:24;;;;;;;;;;;;;;;23.25;29.72;103509.50;5032015;28;20654;-74
2024/01/27 10:27:50;;;;;;;;;;;;;;;23.29;29.70;103514.53;5039110;28;19921;-73
2024/01/27 10:30:16;;;;;;;;;;;;;;;23.33;30.03;103512.41;5039718;28;19914;-74
2024/01/27 10:32:42;;;;;;;;;;;;;;;23.35;29.83;103513.13;5046502;28;20214;-74
2024/01/27 10:35:10;;;;;;;;;;;;;;;23.38;29.65;103516.44;5040876;28;19914;-72
2024/01/27 10:37:39;;;;;;;;;;;;;;;23.40;29.60;103508.13;5041623;28;19943;-74
2024/01/27 10:40:08;;;;;;;;;;;;;;;23.46;29.74;103513.03;5037048;28;19917;-74
2024/01/27 10:42:33;;;;;;;;;;;;;;;23.47;29.61;103511.19;5034362;28;19909;-74
2024/01/27 10:45:00;;;;;;;;;;;;;;;23.52;29.60;103511.63;5028532;28;19924;-74
2024/01/27 10:47:27;;;;;;;;;;;;;;;23.57;29.52;103506.63;5032406;28;19916;-74
2024/01/27 10:49:52;;;;;;;;;;;;;;;23.62;29.41;103507.97;5044126;28;19927;-74
2024/01/27 10:52:17;;;;;;;;;;;;;;;23.65;29.55;103515.84;5035978;28;19980;-74
2024/01/27 10:54:43;;;;;;;;;;;;;;;23.70;29.51;103515.44;5036725;28;20361;-74
2024/01/27 10:57:08;;;;;;;;;;;;;;;23.76;29.37;103519.47;5044429;28;19920;-74
2024/01/27 10:59:33;;;;;;;;;;;;;;;23.77;29.54;103515.75;5039589;28;19917;-74
2024/01/27 11:01:58;;;;;;;;;;;;;;;23.80;29.59;103519.06;5036332;28;20004;-76
2024/01/27 11:04:23;;;;;;;;;;;;;;;23.83;29.16;103515.19;5034868;28;20347;-79
2024/01/27 11:06:49;;;;;;;;;;;;;;;23.86;29.18;103512.19;5042502;28;19924;-75
2024/01/27 11:09:14;;;;;;;;;;;;;;;23.89;29.44;103504.63;5034781;28;19959;-78
2024/01/27 11:11:40;;;;;;;;;;;;;;;23.91;29.40;103504.50;5037572;28;19913;-80
2024/01/27 11:14:06;;;;;;;;;;;;;;;23.92;29.49;103508.94;5036811;28;19952;-76
2024/01/27 11:16:31;;;;;;;;;;;;;;;23.90;29.80;103508.22;5032703;28;19917;-74
2024/01/27 11:18:56;;;;;;;;;;;;;;;23.85;29.78;103507.78;5041508;28;19925;-74
2024/01/27 11:21:21;;;;;;;;;;;;;;;23.79;29.99;103503.78;5032609;28;19967;-74
2024/01/27 11:23:47;;;;;;;;;;;;;;;23.73;30.48;103501.59;5031526;28;19912;-73
2024/01/27 11:26:17;;;;;;;;;;;;;;;23.65;30.70;103501.41;5041047;28;19913;-73
2024/01/27 11:28:42;;;;;;;;;;;;;;;23.63;30.58;103490.66;5042376;28;19992;-75
2024/01/27 11:31:07;;;;;;;;;;;;;;;23.62;30.72;103486.25;5045387;28;19917;-74
2024/01/27 11:33:33;;;;;;;;;;;;;;;23.59;31.08;103485.66;5036335;28;19978;-75
2024/01/27 11:36:02;;;;;;;;;;;;;;;23.58;31.58;103487.50;5029756;28;19920;-74
2024/01/27 11:38:27;;;;;;;;;;;;;;;23.59;31.25;103481.06;5035434;28;20453;-75
2024/01/27 11:40:52;;;;;;;;;;;;;;;23.58;30.59;103484.78;5032310;28;19928;-77
2024/01/27 11:43:17;;;;;;;;;;;;;;;23.59;30.91;103491.94;5046588;28;20394;-74
2024/01/27 11:45:42;;;;;;;;;;;;;;;23.59;30.74;103485.66;5046783;28;19913;-75
2024/01/27 11:48:08;;;;;;;;;;;;;;;23.56;31.00;103494.06;5031345;28;19924;-73
2024/01/27 11:50:33;;;;;;;;;;;;;;;23.57;30.79;103498.50;5030506;28;19914;-73
2024/01/27 11:52:58;;;;;;;;;;;;;;;23.55;30.80;103498.63;5040947;28;19939;-74
2024/01/27 11:55:23;;;;;;;;;;;;;;;23.54;31.05;103504.22;5042373;28;19913;-74
2024/01/27 11:57:48;;;;;;;;;;;;;;;23.54;30.67;103510.50;5036730;28;19918;-73
2024/01/27 12:00:14;;;;;;;;;;;;;;;23.53;31.10;103500.63;5034398;28;19917;-73
2024/01/27 12:02:39;;;;;;;;;;;;;;;23.51;30.80;103499.91;5037439;28;19917;-75
2024/01/27 12:05:05;;;;;;;;;;;;;;;23.54;30.96;103485.22;5033752;28;20493;-75
2024/01/27 12:07:31;;;;;;;;;;;;;;;23.51;30.72;103485.47;5040360;28;19921;-77
2024/01/27 12:09:56;;;;;;;;;;;;;;;23.49;30.84;103485.63;5042716;28;19932;-76
2024/01/27 12:12:21;;;;;;;;;;;;;;;23.48;31.20;103481.16;5034823;28;20394;-77
2024/01/27 12:14:50;;;;;;;;;;;;;;;23.47;30.91;103484.03;5030953;28;19914;-78
2024/01/27 12:17:15;;;;;;;;;;;;;;;23.47;30.83;103482.16;5033952;28;19924;-79
2024/01/27 12:19:47;;;;;;;;;;;;;;;23.45;30.77;103479.59;5037778;28;20471;-80
2024/01/27 12:22:26;;;;;;;;;;;;;;;23.43;30.70;103487.00;5043282;28;19916;-78
2024/01/27 12:24:51;;;;;;;;;;;;;;;23.43;30.96;103481.56;5029228;28;19916;-77
2024/01/27 12:27:17;;;;;;;;;;;;;;;23.44;31.09;103480.56;5033778;28;19912;-76